Enter the Airport ICAO Code

Search by Airport or City

Current Weather

MDPC | Punta Cana International Airport

Punta Cana, Dominican Republic

Last Update 48 Minutes Ago

Thunderstorm

Temperature of 29 ºC

Light to Moderate Winds from East

Temperature

29 ºC

Dew Point Temperature

24 ºC

Relative Humidity

74.6 %

Wind Direction

East (070º, Without Significant Variations)

Wind Velocity

15 km/h (08 kt)

Gusts

None

Visibility

Greater than 10 Kilometers

Sea Level Pressure

1014 hPa (Hectopascals)

Layers of Clouds

5% to 30% of Sky Covered with Cumulonimbus from 610 mts (2000 ft) Above Ground Level.

5% to 30% of Sky Covered from 671 mts (2200 ft) Above Ground Level.

30% to 60% of Sky Covered from 9144 mts (30000 ft) Above Ground Level.

METAR MDPC 202200Z 07008KT 9999 TS FEW020CB FEW022 SCT300 29/24 Q1014 CB/NE/W/NW/N

Weather Forecast

MDPC | Punta Cana International Airport

Punta Cana, Dominican Republic

Forecast valid for the next 25 Hours

In 1 hour it is expected the begining of:

Partly Cloudy Sky

Moderate Winds from East

Maximum Temperature

No Data

Minimum Temperature

No Data

TAF MDPC 202200Z 2100/2200 08010KT 9999 FEW021CB FEW022 SCT300 PROB30 2101/2107 8000 -TSRA FEW016CB BKN018 BKN070